sensor_id;sensor_type;location;lat;lon;timestamp;P1;durP1;ratioP1;P2;durP2;ratioP2
17091;SDS011;8661;45.700;4.880;2023-07-02T00:01:44;26.17;;;16.67;;
17091;SDS011;8661;45.700;4.880;2023-07-02T00:04:12;26.70;;;16.90;;
17091;SDS011;8661;45.700;4.880;2023-07-02T00:06:42;25.87;;;16.97;;
17091;SDS011;8661;45.700;4.880;2023-07-02T00:09:09;25.83;;;17.60;;
17091;SDS011;8661;45.700;4.880;2023-07-02T00:11:37;24.97;;;17.17;;
17091;SDS011;8661;45.700;4.880;2023-07-02T00:14:04;24.93;;;17.43;;
17091;SDS011;8661;45.700;4.880;2023-07-02T00:16:32;25.03;;;16.83;;
17091;SDS011;8661;45.700;4.880;2023-07-02T00:18:59;28.40;;;17.43;;
17091;SDS011;8661;45.700;4.880;2023-07-02T00:21:25;31.10;;;18.53;;
17091;SDS011;8661;45.700;4.880;2023-07-02T00:23:54;28.77;;;17.43;;
17091;SDS011;8661;45.700;4.880;2023-07-02T00:26:22;27.70;;;17.83;;
17091;SDS011;8661;45.700;4.880;2023-07-02T00:28:50;32.20;;;18.00;;
17091;SDS011;8661;45.700;4.880;2023-07-02T00:31:17;29.77;;;19.07;;
17091;SDS011;8661;45.700;4.880;2023-07-02T00:33:44;28.27;;;18.30;;
17091;SDS011;8661;45.700;4.880;2023-07-02T00:36:11;28.63;;;18.93;;
17091;SDS011;8661;45.700;4.880;2023-07-02T00:38:40;27.37;;;18.83;;
17091;SDS011;8661;45.700;4.880;2023-07-02T00:41:08;33.33;;;18.23;;
17091;SDS011;8661;45.700;4.880;2023-07-02T00:43:35;28.73;;;18.40;;
17091;SDS011;8661;45.700;4.880;2023-07-02T00:46:04;30.97;;;18.07;;
17091;SDS011;8661;45.700;4.880;2023-07-02T00:48:31;27.27;;;17.13;;
17091;SDS011;8661;45.700;4.880;2023-07-02T00:50:59;30.43;;;19.13;;
17091;SDS011;8661;45.700;4.880;2023-07-02T00:53:26;29.47;;;18.90;;
17091;SDS011;8661;45.700;4.880;2023-07-02T00:55:53;29.93;;;18.50;;
17091;SDS011;8661;45.700;4.880;2023-07-02T00:58:21;27.00;;;18.03;;
17091;SDS011;8661;45.700;4.880;2023-07-02T01:00:48;30.00;;;18.90;;
17091;SDS011;8661;45.700;4.880;2023-07-02T01:03:15;27.80;;;18.33;;
17091;SDS011;8661;45.700;4.880;2023-07-02T01:05:42;27.23;;;18.73;;
17091;SDS011;8661;45.700;4.880;2023-07-02T01:08:09;31.00;;;18.17;;
17091;SDS011;8661;45.700;4.880;2023-07-02T01:10:37;30.27;;;18.73;;
17091;SDS011;8661;45.700;4.880;2023-07-02T01:13:05;27.83;;;18.20;;
17091;SDS011;8661;45.700;4.880;2023-07-02T01:15:37;31.27;;;19.40;;
17091;SDS011;8661;45.700;4.880;2023-07-02T01:18:05;27.50;;;18.37;;
17091;SDS011;8661;45.700;4.880;2023-07-02T01:20:34;26.10;;;18.03;;
17091;SDS011;8661;45.700;4.880;2023-07-02T01:23:02;32.43;;;19.47;;
17091;SDS011;8661;45.700;4.880;2023-07-02T01:25:30;26.13;;;18.30;;
17091;SDS011;8661;45.700;4.880;2023-07-02T01:28:01;28.80;;;18.90;;
17091;SDS011;8661;45.700;4.880;2023-07-02T01:30:28;27.67;;;19.00;;
17091;SDS011;8661;45.700;4.880;2023-07-02T01:32:55;27.03;;;18.87;;
17091;SDS011;8661;45.700;4.880;2023-07-02T01:35:21;33.47;;;18.73;;
17091;SDS011;8661;45.700;4.880;2023-07-02T01:37:50;29.97;;;19.03;;
17091;SDS011;8661;45.700;4.880;2023-07-02T01:40:17;30.80;;;18.70;;
17091;SDS011;8661;45.700;4.880;2023-07-02T01:42:44;29.43;;;18.50;;
17091;SDS011;8661;45.700;4.880;2023-07-02T01:45:10;30.93;;;18.43;;
17091;SDS011;8661;45.700;4.880;2023-07-02T01:47:37;27.67;;;17.90;;
17091;SDS011;8661;45.700;4.880;2023-07-02T01:50:05;30.30;;;19.53;;
17091;SDS011;8661;45.700;4.880;2023-07-02T01:52:32;28.33;;;17.97;;
17091;SDS011;8661;45.700;4.880;2023-07-02T01:55:01;28.10;;;18.63;;
17091;SDS011;8661;45.700;4.880;2023-07-02T01:57:28;26.40;;;18.57;;
17091;SDS011;8661;45.700;4.880;2023-07-02T01:59:56;24.90;;;18.47;;
17091;SDS011;8661;45.700;4.880;2023-07-02T02:02:23;29.83;;;19.40;;
17091;SDS011;8661;45.700;4.880;2023-07-02T02:04:50;28.23;;;18.40;;
17091;SDS011;8661;45.700;4.880;2023-07-02T02:07:17;29.30;;;18.70;;
17091;SDS011;8661;45.700;4.880;2023-07-02T02:09:44;29.27;;;18.43;;
17091;SDS011;8661;45.700;4.880;2023-07-02T02:12:12;33.67;;;18.47;;
17091;SDS011;8661;45.700;4.880;2023-07-02T02:14:40;27.73;;;19.00;;
17091;SDS011;8661;45.700;4.880;2023-07-02T02:17:07;28.03;;;19.07;;
17091;SDS011;8661;45.700;4.880;2023-07-02T02:19:34;26.70;;;18.53;;
17091;SDS011;8661;45.700;4.880;2023-07-02T02:22:01;30.00;;;19.60;;
17091;SDS011;8661;45.700;4.880;2023-07-02T02:24:28;27.47;;;18.77;;
17091;SDS011;8661;45.700;4.880;2023-07-02T02:26:57;30.13;;;18.87;;
17091;SDS011;8661;45.700;4.880;2023-07-02T02:29:25;27.97;;;19.97;;
17091;SDS011;8661;45.700;4.880;2023-07-02T02:31:52;29.97;;;19.07;;
17091;SDS011;8661;45.700;4.880;2023-07-02T02:34:18;27.27;;;18.60;;
17091;SDS011;8661;45.700;4.880;2023-07-02T02:36:45;31.07;;;19.60;;
17091;SDS011;8661;45.700;4.880;2023-07-02T02:39:12;30.17;;;19.77;;
17091;SDS011;8661;45.700;4.880;2023-07-02T02:41:39;31.27;;;19.93;;
17091;SDS011;8661;45.700;4.880;2023-07-02T02:44:06;31.70;;;19.70;;
17091;SDS011;8661;45.700;4.880;2023-07-02T02:46:35;37.90;;;20.57;;
17091;SDS011;8661;45.700;4.880;2023-07-02T02:49:02;27.17;;;19.40;;
17091;SDS011;8661;45.700;4.880;2023-07-02T02:51:28;27.13;;;17.07;;
17091;SDS011;8661;45.700;4.880;2023-07-02T02:53:55;30.73;;;18.13;;
17091;SDS011;8661;45.700;4.880;2023-07-02T02:56:22;31.77;;;18.43;;
17091;SDS011;8661;45.700;4.880;2023-07-02T02:58:49;29.40;;;17.90;;
17091;SDS011;8661;45.700;4.880;2023-07-02T03:01:16;29.00;;;18.37;;
17091;SDS011;8661;45.700;4.880;2023-07-02T03:03:44;28.27;;;18.40;;
17091;SDS011;8661;45.700;4.880;2023-07-02T03:06:11;30.83;;;18.23;;
17091;SDS011;8661;45.700;4.880;2023-07-02T03:08:39;25.97;;;16.60;;
17091;SDS011;8661;45.700;4.880;2023-07-02T03:11:06;25.37;;;17.13;;
17091;SDS011;8661;45.700;4.880;2023-07-02T03:13:33;29.07;;;18.30;;
17091;SDS011;8661;45.700;4.880;2023-07-02T03:16:00;27.63;;;19.40;;
17091;SDS011;8661;45.700;4.880;2023-07-02T03:18:27;34.83;;;21.73;;
17091;SDS011;8661;45.700;4.880;2023-07-02T03:20:55;46.33;;;25.10;;
17091;SDS011;8661;45.700;4.880;2023-07-02T03:23:22;55.90;;;33.57;;
17091;SDS011;8661;45.700;4.880;2023-07-02T03:25:49;48.50;;;28.83;;
17091;SDS011;8661;45.700;4.880;2023-07-02T03:28:16;32.40;;;22.23;;
17091;SDS011;8661;45.700;4.880;2023-07-02T03:30:43;31.10;;;20.40;;
17091;SDS011;8661;45.700;4.880;2023-07-02T03:33:10;32.47;;;20.97;;
17091;SDS011;8661;45.700;4.880;2023-07-02T03:35:36;33.33;;;21.10;;
17091;SDS011;8661;45.700;4.880;2023-07-02T03:38:05;30.53;;;19.77;;
17091;SDS011;8661;45.700;4.880;2023-07-02T03:40:32;29.83;;;18.77;;
17091;SDS011;8661;45.700;4.880;2023-07-02T03:43:00;29.10;;;17.70;;
17091;SDS011;8661;45.700;4.880;2023-07-02T03:45:27;31.40;;;19.20;;
17091;SDS011;8661;45.700;4.880;2023-07-02T03:47:54;36.47;;;19.43;;
17091;SDS011;8661;45.700;4.880;2023-07-02T03:50:21;31.10;;;19.93;;
17091;SDS011;8661;45.700;4.880;2023-07-02T03:52:48;32.00;;;20.40;;
17091;SDS011;8661;45.700;4.880;2023-07-02T03:55:16;32.07;;;21.30;;
17091;SDS011;8661;45.700;4.880;2023-07-02T03:57:43;36.63;;;21.80;;
17091;SDS011;8661;45.700;4.880;2023-07-02T04:00:10;29.63;;;20.30;;
17091;SDS011;8661;45.700;4.880;2023-07-02T04:02:37;40.70;;;25.47;;
17091;SDS011;8661;45.700;4.880;2023-07-02T04:05:04;52.83;;;35.43;;
17091;SDS011;8661;45.700;4.880;2023-07-02T04:07:32;49.00;;;32.60;;
17091;SDS011;8661;45.700;4.880;2023-07-02T04:09:59;37.00;;;26.57;;
17091;SDS011;8661;45.700;4.880;2023-07-02T04:12:27;51.17;;;31.97;;
17091;SDS011;8661;45.700;4.880;2023-07-02T04:14:54;43.00;;;29.60;;
17091;SDS011;8661;45.700;4.880;2023-07-02T04:17:21;48.07;;;31.43;;
17091;SDS011;8661;45.700;4.880;2023-07-02T04:19:48;50.50;;;34.10;;
17091;SDS011;8661;45.700;4.880;2023-07-02T04:22:15;49.53;;;28.63;;
17091;SDS011;8661;45.700;4.880;2023-07-02T04:24:43;33.93;;;22.03;;
17091;SDS011;8661;45.700;4.880;2023-07-02T04:27:10;35.33;;;22.23;;
17091;SDS011;8661;45.700;4.880;2023-07-02T04:29:39;36.60;;;22.10;;
17091;SDS011;8661;45.700;4.880;2023-07-02T04:32:06;35.03;;;21.57;;
17091;SDS011;8661;45.700;4.880;2023-07-02T04:34:34;34.80;;;21.53;;
17091;SDS011;8661;45.700;4.880;2023-07-02T04:37:01;36.13;;;23.10;;
17091;SDS011;8661;45.700;4.880;2023-07-02T04:39:28;36.93;;;21.37;;
17091;SDS011;8661;45.700;4.880;2023-07-02T04:41:55;46.43;;;21.33;;
17091;SDS011;8661;45.700;4.880;2023-07-02T04:44:22;35.47;;;18.97;;
17091;SDS011;8661;45.700;4.880;2023-07-02T04:46:55;29.67;;;19.33;;
17091;SDS011;8661;45.700;4.880;2023-07-02T04:49:23;33.67;;;19.77;;
17091;SDS011;8661;45.700;4.880;2023-07-02T04:51:50;5.17;;;2.77;;
17091;SDS011;8661;45.700;4.880;2023-07-02T04:54:18;2.10;;;1.93;;
17091;SDS011;8661;45.700;4.880;2023-07-02T04:56:45;6.47;;;2.50;;
17091;SDS011;8661;45.700;4.880;2023-07-02T04:59:12;1.67;;;1.47;;
17091;SDS011;8661;45.700;4.880;2023-07-02T05:01:40;0.80;;;0.80;;
17091;SDS011;8661;45.700;4.880;2023-07-02T05:04:09;2.23;;;1.53;;
17091;SDS011;8661;45.700;4.880;2023-07-02T05:06:36;1.13;;;1.03;;
17091;SDS011;8661;45.700;4.880;2023-07-02T05:09:03;0.63;;;0.63;;
17091;SDS011;8661;45.700;4.880;2023-07-02T05:11:30;0.97;;;0.87;;
17091;SDS011;8661;45.700;4.880;2023-07-02T05:13:57;0.83;;;0.63;;
17091;SDS011;8661;45.700;4.880;2023-07-02T05:16:23;0.60;;;0.60;;
17091;SDS011;8661;45.700;4.880;2023-07-02T05:18:50;0.17;;;0.17;;
17091;SDS011;8661;45.700;4.880;2023-07-02T05:21:19;0.37;;;0.37;;
17091;SDS011;8661;45.700;4.880;2023-07-02T05:23:46;0.37;;;0.37;;
17091;SDS011;8661;45.700;4.880;2023-07-02T05:26:13;0.43;;;0.43;;
17091;SDS011;8661;45.700;4.880;2023-07-02T05:28:40;0.23;;;0.20;;
17091;SDS011;8661;45.700;4.880;2023-07-02T05:31:07;0.67;;;0.20;;
17091;SDS011;8661;45.700;4.880;2023-07-02T05:33:34;0.67;;;0.63;;
17091;SDS011;8661;45.700;4.880;2023-07-02T05:36:01;0.00;;;0.00;;
17091;SDS011;8661;45.700;4.880;2023-07-02T05:38:29;0.00;;;0.00;;
17091;SDS011;8661;45.700;4.880;2023-07-02T05:40:56;0.20;;;0.20;;
17091;SDS011;8661;45.700;4.880;2023-07-02T05:43:23;0.10;;;0.10;;
17091;SDS011;8661;45.700;4.880;2023-07-02T05:45:50;0.10;;;0.10;;
17091;SDS011;8661;45.700;4.880;2023-07-02T05:48:18;0.33;;;0.20;;
17091;SDS011;8661;45.700;4.880;2023-07-02T05:50:45;0.13;;;0.13;;
17091;SDS011;8661;45.700;4.880;2023-07-02T05:53:12;0.50;;;0.47;;
17091;SDS011;8661;45.700;4.880;2023-07-02T05:55:41;0.17;;;0.17;;
17091;SDS011;8661;45.700;4.880;2023-07-02T05:58:08;0.20;;;0.20;;
17091;SDS011;8661;45.700;4.880;2023-07-02T06:00:35;0.30;;;0.30;;
17091;SDS011;8661;45.700;4.880;2023-07-02T06:03:02;0.00;;;0.00;;
17091;SDS011;8661;45.700;4.880;2023-07-02T06:05:29;0.03;;;0.03;;
17091;SDS011;8661;45.700;4.880;2023-07-02T06:07:56;0.10;;;0.10;;
17091;SDS011;8661;45.700;4.880;2023-07-02T06:10:23;0.17;;;0.17;;
17091;SDS011;8661;45.700;4.880;2023-07-02T06:12:51;0.10;;;0.10;;
17091;SDS011;8661;45.700;4.880;2023-07-02T06:15:18;0.20;;;0.20;;
17091;SDS011;8661;45.700;4.880;2023-07-02T06:17:45;0.50;;;0.40;;
17091;SDS011;8661;45.700;4.880;2023-07-02T06:20:12;0.20;;;0.20;;
17091;SDS011;8661;45.700;4.880;2023-07-02T06:22:39;0.40;;;0.33;;
17091;SDS011;8661;45.700;4.880;2023-07-02T06:25:07;0.13;;;0.13;;
17091;SDS011;8661;45.700;4.880;2023-07-02T06:27:34;0.47;;;0.30;;
17091;SDS011;8661;45.700;4.880;2023-07-02T06:30:04;1.43;;;0.87;;
17091;SDS011;8661;45.700;4.880;2023-07-02T06:32:32;0.20;;;0.20;;
17091;SDS011;8661;45.700;4.880;2023-07-02T06:34:59;2.33;;;0.50;;
17091;SDS011;8661;45.700;4.880;2023-07-02T06:37:26;0.20;;;0.20;;
17091;SDS011;8661;45.700;4.880;2023-07-02T06:39:57;0.20;;;0.20;;
17091;SDS011;8661;45.700;4.880;2023-07-02T06:42:25;0.27;;;0.23;;
17091;SDS011;8661;45.700;4.880;2023-07-02T06:44:53;0.30;;;0.30;;
17091;SDS011;8661;45.700;4.880;2023-07-02T06:47:23;0.33;;;0.10;;
17091;SDS011;8661;45.700;4.880;2023-07-02T06:49:51;0.20;;;0.20;;
17091;SDS011;8661;45.700;4.880;2023-07-02T06:52:18;0.20;;;0.20;;
17091;SDS011;8661;45.700;4.880;2023-07-02T06:54:45;0.10;;;0.10;;
17091;SDS011;8661;45.700;4.880;2023-07-02T06:57:12;0.03;;;0.03;;
17091;SDS011;8661;45.700;4.880;2023-07-02T06:59:39;0.30;;;0.20;;
17091;SDS011;8661;45.700;4.880;2023-07-02T07:02:06;0.20;;;0.20;;
17091;SDS011;8661;45.700;4.880;2023-07-02T07:04:34;0.10;;;0.10;;
17091;SDS011;8661;45.700;4.880;2023-07-02T07:07:01;0.10;;;0.10;;
17091;SDS011;8661;45.700;4.880;2023-07-02T07:09:29;0.10;;;0.10;;
17091;SDS011;8661;45.700;4.880;2023-07-02T07:11:56;0.10;;;0.10;;
17091;SDS011;8661;45.700;4.880;2023-07-02T07:14:24;0.30;;;0.30;;
17091;SDS011;8661;45.700;4.880;2023-07-02T07:16:51;0.30;;;0.30;;
17091;SDS011;8661;45.700;4.880;2023-07-02T07:19:19;0.10;;;0.10;;
17091;SDS011;8661;45.700;4.880;2023-07-02T07:21:49;16.37;;;11.07;;
17091;SDS011;8661;45.700;4.880;2023-07-02T07:24:17;30.87;;;18.13;;
17091;SDS011;8661;45.700;4.880;2023-07-02T07:26:44;25.60;;;16.93;;
17091;SDS011;8661;45.700;4.880;2023-07-02T07:29:11;29.93;;;17.90;;
17091;SDS011;8661;45.700;4.880;2023-07-02T07:31:38;27.33;;;17.80;;
17091;SDS011;8661;45.700;4.880;2023-07-02T07:34:06;24.87;;;16.97;;
17091;SDS011;8661;45.700;4.880;2023-07-02T07:36:33;27.77;;;17.90;;
17091;SDS011;8661;45.700;4.880;2023-07-02T07:39:02;26.20;;;17.17;;
17091;SDS011;8661;45.700;4.880;2023-07-02T07:41:29;28.00;;;18.17;;
17091;SDS011;8661;45.700;4.880;2023-07-02T07:43:57;26.03;;;17.17;;
17091;SDS011;8661;45.700;4.880;2023-07-02T07:46:26;26.73;;;17.40;;
17091;SDS011;8661;45.700;4.880;2023-07-02T07:48:54;30.93;;;18.13;;
17091;SDS011;8661;45.700;4.880;2023-07-02T07:51:22;26.97;;;19.30;;
17091;SDS011;8661;45.700;4.880;2023-07-02T07:53:50;31.95;;;20.40;;
17091;SDS011;8661;45.700;4.880;2023-07-02T07:56:18;30.33;;;18.67;;
17091;SDS011;8661;45.700;4.880;2023-07-02T07:58:45;29.97;;;17.40;;
17091;SDS011;8661;45.700;4.880;2023-07-02T08:01:12;15.70;;;10.63;;
17091;SDS011;8661;45.700;4.880;2023-07-02T08:03:38;20.13;;;13.23;;
17091;SDS011;8661;45.700;4.880;2023-07-02T08:06:05;17.83;;;11.50;;
17091;SDS011;8661;45.700;4.880;2023-07-02T08:08:32;19.60;;;10.60;;
17091;SDS011;8661;45.700;4.880;2023-07-02T08:10:59;10.50;;;7.70;;
17091;SDS011;8661;45.700;4.880;2023-07-02T08:13:27;10.33;;;7.37;;
17091;SDS011;8661;45.700;4.880;2023-07-02T08:15:54;12.00;;;8.07;;
17091;SDS011;8661;45.700;4.880;2023-07-02T08:18:21;11.13;;;7.80;;
17091;SDS011;8661;45.700;4.880;2023-07-02T08:20:48;47.10;;;11.03;;
17091;SDS011;8661;45.700;4.880;2023-07-02T08:23:15;31.57;;;9.30;;
17091;SDS011;8661;45.700;4.880;2023-07-02T08:25:42;14.27;;;7.30;;
17091;SDS011;8661;45.700;4.880;2023-07-02T08:28:09;11.07;;;6.97;;
17091;SDS011;8661;45.700;4.880;2023-07-02T08:30:40;8.47;;;5.83;;
17091;SDS011;8661;45.700;4.880;2023-07-02T08:33:07;8.80;;;6.20;;
17091;SDS011;8661;45.700;4.880;2023-07-02T08:35:34;10.23;;;6.30;;
17091;SDS011;8661;45.700;4.880;2023-07-02T08:38:04;9.07;;;6.70;;
17091;SDS011;8661;45.700;4.880;2023-07-02T08:40:33;9.63;;;6.20;;
17091;SDS011;8661;45.700;4.880;2023-07-02T08:43:00;9.07;;;5.97;;
17091;SDS011;8661;45.700;4.880;2023-07-02T08:45:27;8.20;;;6.17;;
17091;SDS011;8661;45.700;4.880;2023-07-02T08:47:56;9.57;;;5.70;;
17091;SDS011;8661;45.700;4.880;2023-07-02T08:50:23;8.73;;;6.13;;
17091;SDS011;8661;45.700;4.880;2023-07-02T08:52:50;9.40;;;5.20;;
17091;SDS011;8661;45.700;4.880;2023-07-02T08:55:20;6.10;;;4.50;;
17091;SDS011;8661;45.700;4.880;2023-07-02T08:57:49;8.13;;;4.87;;
17091;SDS011;8661;45.700;4.880;2023-07-02T09:00:18;11.10;;;5.57;;
17091;SDS011;8661;45.700;4.880;2023-07-02T09:02:46;7.33;;;5.70;;
17091;SDS011;8661;45.700;4.880;2023-07-02T09:05:14;8.77;;;6.13;;
17091;SDS011;8661;45.700;4.880;2023-07-02T09:07:44;9.10;;;6.13;;
17091;SDS011;8661;45.700;4.880;2023-07-02T09:10:11;7.93;;;5.70;;
17091;SDS011;8661;45.700;4.880;2023-07-02T09:12:39;8.87;;;6.20;;
17091;SDS011;8661;45.700;4.880;2023-07-02T09:15:06;11.47;;;6.77;;
17091;SDS011;8661;45.700;4.880;2023-07-02T09:17:34;9.50;;;6.37;;
17091;SDS011;8661;45.700;4.880;2023-07-02T09:20:03;9.40;;;6.80;;
17091;SDS011;8661;45.700;4.880;2023-07-02T09:22:34;11.43;;;6.33;;
17091;SDS011;8661;45.700;4.880;2023-07-02T09:25:02;10.97;;;7.40;;
17091;SDS011;8661;45.700;4.880;2023-07-02T09:27:33;10.57;;;7.87;;
17091;SDS011;8661;45.700;4.880;2023-07-02T09:30:05;12.13;;;8.53;;
17091;SDS011;8661;45.700;4.880;2023-07-02T09:32:33;13.50;;;8.13;;
17091;SDS011;8661;45.700;4.880;2023-07-02T09:35:01;12.67;;;8.33;;
17091;SDS011;8661;45.700;4.880;2023-07-02T09:37:29;9.13;;;6.33;;
17091;SDS011;8661;45.700;4.880;2023-07-02T09:39:58;10.63;;;7.60;;
17091;SDS011;8661;45.700;4.880;2023-07-02T09:42:26;11.63;;;7.70;;
17091;SDS011;8661;45.700;4.880;2023-07-02T09:44:55;10.77;;;7.27;;
17091;SDS011;8661;45.700;4.880;2023-07-02T09:47:24;9.50;;;6.67;;
17091;SDS011;8661;45.700;4.880;2023-07-02T09:49:52;10.27;;;7.30;;
17091;SDS011;8661;45.700;4.880;2023-07-02T09:52:21;11.37;;;7.13;;
17091;SDS011;8661;45.700;4.880;2023-07-02T09:54:49;9.33;;;6.97;;
17091;SDS011;8661;45.700;4.880;2023-07-02T09:57:17;11.90;;;8.17;;
17091;SDS011;8661;45.700;4.880;2023-07-02T09:59:44;13.17;;;9.03;;
17091;SDS011;8661;45.700;4.880;2023-07-02T10:02:11;13.63;;;8.17;;
17091;SDS011;8661;45.700;4.880;2023-07-02T10:04:41;11.57;;;7.67;;
17091;SDS011;8661;45.700;4.880;2023-07-02T10:07:09;11.50;;;7.50;;
17091;SDS011;8661;45.700;4.880;2023-07-02T10:09:37;11.60;;;7.80;;
17091;SDS011;8661;45.700;4.880;2023-07-02T10:14:49;8.30;;;6.43;;
17091;SDS011;8661;45.700;4.880;2023-07-02T10:17:24;14.37;;;6.10;;
17091;SDS011;8661;45.700;4.880;2023-07-02T10:19:53;10.27;;;6.93;;
17091;SDS011;8661;45.700;4.880;2023-07-02T10:22:22;10.13;;;7.47;;
17091;SDS011;8661;45.700;4.880;2023-07-02T10:24:50;9.67;;;6.43;;
17091;SDS011;8661;45.700;4.880;2023-07-02T10:27:18;10.73;;;6.77;;
17091;SDS011;8661;45.700;4.880;2023-07-02T10:29:50;9.67;;;7.00;;
17091;SDS011;8661;45.700;4.880;2023-07-02T10:32:25;9.83;;;6.80;;
17091;SDS011;8661;45.700;4.880;2023-07-02T10:34:54;8.10;;;6.03;;
17091;SDS011;8661;45.700;4.880;2023-07-02T10:37:21;8.73;;;6.33;;
17091;SDS011;8661;45.700;4.880;2023-07-02T10:39:48;8.40;;;5.43;;
17091;SDS011;8661;45.700;4.880;2023-07-02T10:42:17;11.53;;;5.87;;
17091;SDS011;8661;45.700;4.880;2023-07-02T10:44:47;9.97;;;6.47;;
17091;SDS011;8661;45.700;4.880;2023-07-02T10:47:17;7.57;;;6.20;;
17091;SDS011;8661;45.700;4.880;2023-07-02T10:49:44;9.10;;;6.13;;
17091;SDS011;8661;45.700;4.880;2023-07-02T10:52:11;7.73;;;6.30;;
17091;SDS011;8661;45.700;4.880;2023-07-02T10:54:39;9.57;;;6.63;;
17091;SDS011;8661;45.700;4.880;2023-07-02T10:57:10;8.90;;;5.97;;
17091;SDS011;8661;45.700;4.880;2023-07-02T10:59:40;9.13;;;6.43;;
17091;SDS011;8661;45.700;4.880;2023-07-02T11:02:07;7.60;;;5.67;;
17091;SDS011;8661;45.700;4.880;2023-07-02T11:04:36;9.60;;;6.00;;
17091;SDS011;8661;45.700;4.880;2023-07-02T11:07:04;8.57;;;5.10;;
17091;SDS011;8661;45.700;4.880;2023-07-02T11:09:32;7.30;;;5.95;;
17091;SDS011;8661;45.700;4.880;2023-07-02T11:12:00;6.80;;;5.63;;
17091;SDS011;8661;45.700;4.880;2023-07-02T11:14:27;7.07;;;5.72;;
17091;SDS011;8661;45.700;4.880;2023-07-02T11:16:56;7.00;;;5.53;;
17091;SDS011;8661;45.700;4.880;2023-07-02T11:19:23;9.30;;;6.80;;
17091;SDS011;8661;45.700;4.880;2023-07-02T11:21:52;7.18;;;5.70;;
17091;SDS011;8661;45.700;4.880;2023-07-02T11:24:28;9.98;;;6.28;;
17091;SDS011;8661;45.700;4.880;2023-07-02T11:26:57;7.82;;;6.22;;
17091;SDS011;8661;45.700;4.880;2023-07-02T11:29:24;8.30;;;6.35;;
17091;SDS011;8661;45.700;4.880;2023-07-02T11:31:54;7.22;;;5.50;;
17091;SDS011;8661;45.700;4.880;2023-07-02T11:34:30;7.43;;;5.78;;
17091;SDS011;8661;45.700;4.880;2023-07-02T11:36:58;7.57;;;5.50;;
17091;SDS011;8661;45.700;4.880;2023-07-02T11:39:25;13.73;;;6.20;;
17091;SDS011;8661;45.700;4.880;2023-07-02T11:41:52;7.72;;;5.57;;
17091;SDS011;8661;45.700;4.880;2023-07-02T11:44:20;6.35;;;5.35;;
17091;SDS011;8661;45.700;4.880;2023-07-02T11:46:48;6.35;;;4.95;;
17091;SDS011;8661;45.700;4.880;2023-07-02T11:49:15;5.70;;;4.57;;
17091;SDS011;8661;45.700;4.880;2023-07-02T11:51:42;6.28;;;5.00;;
17091;SDS011;8661;45.700;4.880;2023-07-02T11:54:14;6.07;;;5.03;;
17091;SDS011;8661;45.700;4.880;2023-07-02T11:56:43;7.00;;;4.90;;
17091;SDS011;8661;45.700;4.880;2023-07-02T11:59:10;5.18;;;3.90;;
17091;SDS011;8661;45.700;4.880;2023-07-02T12:01:37;6.15;;;4.68;;
17091;SDS011;8661;45.700;4.880;2023-07-02T12:04:04;5.70;;;4.53;;
17091;SDS011;8661;45.700;4.880;2023-07-02T12:06:32;5.15;;;3.88;;
17091;SDS011;8661;45.700;4.880;2023-07-02T12:08:59;5.82;;;2.83;;
17091;SDS011;8661;45.700;4.880;2023-07-02T12:11:27;3.75;;;2.78;;
17091;SDS011;8661;45.700;4.880;2023-07-02T12:13:54;6.30;;;2.55;;
17091;SDS011;8661;45.700;4.880;2023-07-02T12:16:21;3.72;;;2.45;;
17091;SDS011;8661;45.700;4.880;2023-07-02T12:18:48;4.45;;;2.97;;
17091;SDS011;8661;45.700;4.880;2023-07-02T12:21:15;4.18;;;3.10;;
17091;SDS011;8661;45.700;4.880;2023-07-02T12:23:44;4.53;;;2.88;;
17091;SDS011;8661;45.700;4.880;2023-07-02T12:26:11;3.63;;;2.70;;
17091;SDS011;8661;45.700;4.880;2023-07-02T12:28:42;3.20;;;2.67;;
17091;SDS011;8661;45.700;4.880;2023-07-02T12:31:09;3.23;;;2.77;;
17091;SDS011;8661;45.700;4.880;2023-07-02T12:33:38;3.30;;;2.70;;
17091;SDS011;8661;45.700;4.880;2023-07-02T12:36:05;4.07;;;3.20;;
17091;SDS011;8661;45.700;4.880;2023-07-02T12:38:32;6.13;;;3.27;;
17091;SDS011;8661;45.700;4.880;2023-07-02T12:40:59;5.43;;;3.00;;
17091;SDS011;8661;45.700;4.880;2023-07-02T12:43:33;4.10;;;3.10;;
17091;SDS011;8661;45.700;4.880;2023-07-02T12:46:18;4.33;;;2.83;;
17091;SDS011;8661;45.700;4.880;2023-07-02T12:48:47;3.97;;;3.00;;
17091;SDS011;8661;45.700;4.880;2023-07-02T12:51:15;3.80;;;2.97;;
17091;SDS011;8661;45.700;4.880;2023-07-02T12:53:43;4.33;;;3.17;;
17091;SDS011;8661;45.700;4.880;2023-07-02T12:56:12;3.77;;;3.13;;
17091;SDS011;8661;45.700;4.880;2023-07-02T12:58:44;4.47;;;3.60;;
17091;SDS011;8661;45.700;4.880;2023-07-02T13:01:24;7.77;;;5.03;;
17091;SDS011;8661;45.700;4.880;2023-07-02T13:03:51;5.93;;;4.60;;
17091;SDS011;8661;45.700;4.880;2023-07-02T13:06:28;5.93;;;4.20;;
17091;SDS011;8661;45.700;4.880;2023-07-02T13:09:05;8.47;;;5.07;;
17091;SDS011;8661;45.700;4.880;2023-07-02T13:11:33;10.07;;;5.53;;
17091;SDS011;8661;45.700;4.880;2023-07-02T13:14:16;7.47;;;5.53;;
17091;SDS011;8661;45.700;4.880;2023-07-02T13:19:47;7.60;;;4.87;;
17091;SDS011;8661;45.700;4.880;2023-07-02T13:22:15;7.53;;;4.83;;
17091;SDS011;8661;45.700;4.880;2023-07-02T13:24:44;6.90;;;4.87;;
17091;SDS011;8661;45.700;4.880;2023-07-02T13:27:12;6.70;;;4.50;;
17091;SDS011;8661;45.700;4.880;2023-07-02T13:29:42;5.70;;;4.33;;
17091;SDS011;8661;45.700;4.880;2023-07-02T13:32:09;5.00;;;3.80;;
17091;SDS011;8661;45.700;4.880;2023-07-02T13:34:38;5.33;;;4.23;;
17091;SDS011;8661;45.700;4.880;2023-07-02T13:37:10;5.60;;;3.90;;
17091;SDS011;8661;45.700;4.880;2023-07-02T13:39:38;3.83;;;3.00;;
17091;SDS011;8661;45.700;4.880;2023-07-02T13:42:05;4.13;;;3.30;;
17091;SDS011;8661;45.700;4.880;2023-07-02T13:44:38;4.70;;;3.13;;
17091;SDS011;8661;45.700;4.880;2023-07-02T13:47:26;4.47;;;3.13;;
17091;SDS011;8661;45.700;4.880;2023-07-02T13:49:55;4.60;;;3.67;;
17091;SDS011;8661;45.700;4.880;2023-07-02T13:52:24;4.07;;;3.35;;
17091;SDS011;8661;45.700;4.880;2023-07-02T13:54:52;4.55;;;3.53;;
17091;SDS011;8661;45.700;4.880;2023-07-02T13:57:19;4.85;;;3.28;;
17091;SDS011;8661;45.700;4.880;2023-07-02T13:59:49;4.65;;;3.53;;
17091;SDS011;8661;45.700;4.880;2023-07-02T14:02:16;4.47;;;3.53;;
17091;SDS011;8661;45.700;4.880;2023-07-02T14:04:44;4.78;;;3.67;;
17091;SDS011;8661;45.700;4.880;2023-07-02T14:07:11;4.65;;;3.35;;
17091;SDS011;8661;45.700;4.880;2023-07-02T14:09:40;6.32;;;3.60;;
17091;SDS011;8661;45.700;4.880;2023-07-02T14:12:10;4.18;;;3.10;;
17091;SDS011;8661;45.700;4.880;2023-07-02T14:15:08;3.88;;;3.33;;
17091;SDS011;8661;45.700;4.880;2023-07-02T14:17:51;5.03;;;3.63;;
17091;SDS011;8661;45.700;4.880;2023-07-02T14:20:45;5.13;;;4.13;;
17091;SDS011;8661;45.700;4.880;2023-07-02T14:23:13;5.95;;;4.68;;
17091;SDS011;8661;45.700;4.880;2023-07-02T14:25:41;4.25;;;3.58;;
17091;SDS011;8661;45.700;4.880;2023-07-02T14:28:16;3.70;;;2.88;;
17091;SDS011;8661;45.700;4.880;2023-07-02T14:30:48;4.00;;;2.80;;
17091;SDS011;8661;45.700;4.880;2023-07-02T14:33:22;4.10;;;3.17;;
17091;SDS011;8661;45.700;4.880;2023-07-02T14:35:50;7.18;;;3.50;;
17091;SDS011;8661;45.700;4.880;2023-07-02T14:38:17;4.18;;;3.38;;
17091;SDS011;8661;45.700;4.880;2023-07-02T14:40:45;4.93;;;3.13;;
17091;SDS011;8661;45.700;4.880;2023-07-02T14:43:14;3.20;;;2.83;;
17091;SDS011;8661;45.700;4.880;2023-07-02T14:45:43;6.18;;;3.28;;
17091;SDS011;8661;45.700;4.880;2023-07-02T14:48:15;4.93;;;3.35;;
17091;SDS011;8661;45.700;4.880;2023-07-02T14:50:47;5.40;;;3.50;;
17091;SDS011;8661;45.700;4.880;2023-07-02T14:53:17;4.85;;;3.97;;
17091;SDS011;8661;45.700;4.880;2023-07-02T14:55:47;6.95;;;3.70;;
17091;SDS011;8661;45.700;4.880;2023-07-02T14:58:15;5.05;;;4.13;;
17091;SDS011;8661;45.700;4.880;2023-07-02T15:00:49;5.35;;;4.10;;
17091;SDS011;8661;45.700;4.880;2023-07-02T15:03:35;6.43;;;4.38;;